sensor_id;sensor_type;location;lat;lon;timestamp;temperature;humidity
15355;DHT22;7777;52.254;9.618;2023-06-14T00:01:47;17.10;64.50
15355;DHT22;7777;52.254;9.618;2023-06-14T00:04:13;17.00;64.20
15355;DHT22;7777;52.254;9.618;2023-06-14T00:06:42;17.00;64.20
15355;DHT22;7777;52.254;9.618;2023-06-14T00:09:11;16.90;64.00
15355;DHT22;7777;52.254;9.618;2023-06-14T00:11:39;16.90;64.20
15355;DHT22;7777;52.254;9.618;2023-06-14T00:14:06;16.80;64.70
15355;DHT22;7777;52.254;9.618;2023-06-14T00:16:37;16.70;64.40
15355;DHT22;7777;52.254;9.618;2023-06-14T00:19:04;16.70;64.50
15355;DHT22;7777;52.254;9.618;2023-06-14T00:21:31;16.60;64.40
15355;DHT22;7777;52.254;9.618;2023-06-14T00:23:58;16.60;64.40
15355;DHT22;7777;52.254;9.618;2023-06-14T00:26:24;16.50;64.30
15355;DHT22;7777;52.254;9.618;2023-06-14T00:28:51;16.50;64.30
15355;DHT22;7777;52.254;9.618;2023-06-14T00:31:18;16.50;64.60
15355;DHT22;7777;52.254;9.618;2023-06-14T00:33:44;16.40;64.80
15355;DHT22;7777;52.254;9.618;2023-06-14T00:36:10;16.40;64.50
15355;DHT22;7777;52.254;9.618;2023-06-14T00:38:36;16.30;64.60
15355;DHT22;7777;52.254;9.618;2023-06-14T00:41:02;16.20;64.60
15355;DHT22;7777;52.254;9.618;2023-06-14T00:43:28;16.10;64.90
15355;DHT22;7777;52.254;9.618;2023-06-14T00:45:53;16.10;65.00
15355;DHT22;7777;52.254;9.618;2023-06-14T00:48:19;16.00;65.20
15355;DHT22;7777;52.254;9.618;2023-06-14T00:50:45;16.00;64.90
15355;DHT22;7777;52.254;9.618;2023-06-14T00:53:14;15.90;65.10
15355;DHT22;7777;52.254;9.618;2023-06-14T00:55:42;15.90;66.00
15355;DHT22;7777;52.254;9.618;2023-06-14T00:58:09;15.80;65.10
15355;DHT22;7777;52.254;9.618;2023-06-14T01:00:36;15.80;65.20
15355;DHT22;7777;52.254;9.618;2023-06-14T01:03:02;15.70;65.30
15355;DHT22;7777;52.254;9.618;2023-06-14T01:05:29;15.70;65.00
15355;DHT22;7777;52.254;9.618;2023-06-14T01:11:12;15.50;65.30
15355;DHT22;7777;52.254;9.618;2023-06-14T01:13:45;15.50;65.40
15355;DHT22;7777;52.254;9.618;2023-06-14T01:16:12;15.40;65.60
15355;DHT22;7777;52.254;9.618;2023-06-14T01:18:40;15.40;65.10
15355;DHT22;7777;52.254;9.618;2023-06-14T01:21:23;15.30;65.90
15355;DHT22;7777;52.254;9.618;2023-06-14T01:23:50;15.30;65.90
15355;DHT22;7777;52.254;9.618;2023-06-14T01:26:21;15.20;65.70
15355;DHT22;7777;52.254;9.618;2023-06-14T01:28:48;15.20;65.60
15355;DHT22;7777;52.254;9.618;2023-06-14T01:31:19;15.10;65.70
15355;DHT22;7777;52.254;9.618;2023-06-14T01:33:48;15.10;66.10
15355;DHT22;7777;52.254;9.618;2023-06-14T01:36:19;15.10;65.80
15355;DHT22;7777;52.254;9.618;2023-06-14T01:38:46;15.00;66.10
15355;DHT22;7777;52.254;9.618;2023-06-14T01:41:16;15.00;66.60
15355;DHT22;7777;52.254;9.618;2023-06-14T01:43:42;14.90;66.60
15355;DHT22;7777;52.254;9.618;2023-06-14T01:46:08;14.90;65.90
15355;DHT22;7777;52.254;9.618;2023-06-14T01:48:35;14.80;66.00
15355;DHT22;7777;52.254;9.618;2023-06-14T01:51:01;14.80;66.30
15355;DHT22;7777;52.254;9.618;2023-06-14T01:53:27;14.70;65.90
15355;DHT22;7777;52.254;9.618;2023-06-14T01:55:53;14.70;66.50
15355;DHT22;7777;52.254;9.618;2023-06-14T01:58:19;14.70;66.40
15355;DHT22;7777;52.254;9.618;2023-06-14T02:00:45;14.60;65.90
15355;DHT22;7777;52.254;9.618;2023-06-14T02:03:12;14.60;66.80
15355;DHT22;7777;52.254;9.618;2023-06-14T02:05:38;14.60;66.10
15355;DHT22;7777;52.254;9.618;2023-06-14T02:08:05;14.50;66.10
15355;DHT22;7777;52.254;9.618;2023-06-14T02:10:31;14.50;66.70
15355;DHT22;7777;52.254;9.618;2023-06-14T02:12:57;14.40;66.70
15355;DHT22;7777;52.254;9.618;2023-06-14T02:15:23;14.40;66.30
15355;DHT22;7777;52.254;9.618;2023-06-14T02:17:49;14.40;66.60
15355;DHT22;7777;52.254;9.618;2023-06-14T02:20:15;14.40;66.50
15355;DHT22;7777;52.254;9.618;2023-06-14T02:22:41;14.30;66.70
15355;DHT22;7777;52.254;9.618;2023-06-14T02:25:07;14.30;66.50
15355;DHT22;7777;52.254;9.618;2023-06-14T02:42:16;14.10;66.60
15355;DHT22;7777;52.254;9.618;2023-06-14T02:44:42;14.00;66.90
15355;DHT22;7777;52.254;9.618;2023-06-14T02:47:08;14.00;66.60
15355;DHT22;7777;52.254;9.618;2023-06-14T02:49:34;14.00;66.80
15355;DHT22;7777;52.254;9.618;2023-06-14T02:52:00;13.90;66.70
15355;DHT22;7777;52.254;9.618;2023-06-14T02:54:25;13.90;67.40
15355;DHT22;7777;52.254;9.618;2023-06-14T02:56:51;13.80;67.10
15355;DHT22;7777;52.254;9.618;2023-06-14T02:59:17;13.80;67.00
15355;DHT22;7777;52.254;9.618;2023-06-14T03:01:44;13.80;66.80
15355;DHT22;7777;52.254;9.618;2023-06-14T03:04:10;13.80;67.30
15355;DHT22;7777;52.254;9.618;2023-06-14T03:06:36;13.80;67.40
15355;DHT22;7777;52.254;9.618;2023-06-14T03:09:03;13.70;67.60
15355;DHT22;7777;52.254;9.618;2023-06-14T03:11:32;13.70;68.00
15355;DHT22;7777;52.254;9.618;2023-06-14T03:13:58;13.70;67.70
15355;DHT22;7777;52.254;9.618;2023-06-14T03:16:24;13.60;67.80
15355;DHT22;7777;52.254;9.618;2023-06-14T03:18:53;13.60;67.40
15355;DHT22;7777;52.254;9.618;2023-06-14T03:21:23;13.60;67.60
15355;DHT22;7777;52.254;9.618;2023-06-14T03:23:53;13.60;67.60
15355;DHT22;7777;52.254;9.618;2023-06-14T03:26:25;13.50;67.90
15355;DHT22;7777;52.254;9.618;2023-06-14T03:28:54;13.50;67.80
15355;DHT22;7777;52.254;9.618;2023-06-14T03:31:28;13.50;68.00
15355;DHT22;7777;52.254;9.618;2023-06-14T03:34:03;13.50;67.60
15355;DHT22;7777;52.254;9.618;2023-06-14T03:36:33;13.50;67.90
15355;DHT22;7777;52.254;9.618;2023-06-14T03:39:05;13.40;67.80
15355;DHT22;7777;52.254;9.618;2023-06-14T03:41:37;13.40;67.80
15355;DHT22;7777;52.254;9.618;2023-06-14T03:44:07;13.50;67.80
15355;DHT22;7777;52.254;9.618;2023-06-14T03:46:36;13.40;68.20
15355;DHT22;7777;52.254;9.618;2023-06-14T03:49:01;13.40;68.20
15355;DHT22;7777;52.254;9.618;2023-06-14T03:51:28;13.40;68.00
15355;DHT22;7777;52.254;9.618;2023-06-14T03:53:54;13.30;68.30
15355;DHT22;7777;52.254;9.618;2023-06-14T03:56:21;13.30;67.70
15355;DHT22;7777;52.254;9.618;2023-06-14T03:58:47;13.40;68.00
15355;DHT22;7777;52.254;9.618;2023-06-14T04:01:13;13.40;68.20
15355;DHT22;7777;52.254;9.618;2023-06-14T04:03:39;13.30;68.00
15355;DHT22;7777;52.254;9.618;2023-06-14T04:06:06;13.30;68.50
15355;DHT22;7777;52.254;9.618;2023-06-14T04:08:33;13.40;68.20
15355;DHT22;7777;52.254;9.618;2023-06-14T04:10:59;13.30;68.20
15355;DHT22;7777;52.254;9.618;2023-06-14T04:13:25;13.30;68.30
15355;DHT22;7777;52.254;9.618;2023-06-14T04:15:51;13.40;68.50
15355;DHT22;7777;52.254;9.618;2023-06-14T04:18:17;13.40;68.60
15355;DHT22;7777;52.254;9.618;2023-06-14T04:20:45;13.40;68.60
15355;DHT22;7777;52.254;9.618;2023-06-14T04:23:15;13.40;68.60
15355;DHT22;7777;52.254;9.618;2023-06-14T04:25:43;13.40;68.70
15355;DHT22;7777;52.254;9.618;2023-06-14T04:28:13;13.50;69.20
15355;DHT22;7777;52.254;9.618;2023-06-14T04:30:44;13.50;69.00
15355;DHT22;7777;52.254;9.618;2023-06-14T04:33:13;13.50;68.90
15355;DHT22;7777;52.254;9.618;2023-06-14T04:35:40;13.50;68.90
15355;DHT22;7777;52.254;9.618;2023-06-14T04:38:06;13.60;68.90
15355;DHT22;7777;52.254;9.618;2023-06-14T04:40:35;13.60;69.00
15355;DHT22;7777;52.254;9.618;2023-06-14T04:43:09;13.70;69.10
15355;DHT22;7777;52.254;9.618;2023-06-14T04:45:37;13.80;69.80
15355;DHT22;7777;52.254;9.618;2023-06-14T04:48:05;13.80;69.60
15355;DHT22;7777;52.254;9.618;2023-06-14T04:50:32;13.90;71.60
15355;DHT22;7777;52.254;9.618;2023-06-14T04:52:58;14.00;70.80
15355;DHT22;7777;52.254;9.618;2023-06-14T04:55:25;14.00;70.00
15355;DHT22;7777;52.254;9.618;2023-06-14T04:57:51;14.10;70.70
15355;DHT22;7777;52.254;9.618;2023-06-14T05:00:19;14.20;70.70
15355;DHT22;7777;52.254;9.618;2023-06-14T05:02:46;14.30;70.10
15355;DHT22;7777;52.254;9.618;2023-06-14T05:05:12;14.40;70.10
15355;DHT22;7777;52.254;9.618;2023-06-14T05:07:38;14.50;70.50
15355;DHT22;7777;52.254;9.618;2023-06-14T05:10:05;14.50;71.00
15355;DHT22;7777;52.254;9.618;2023-06-14T05:12:31;14.60;71.00
15355;DHT22;7777;52.254;9.618;2023-06-14T05:14:57;14.70;70.80
15355;DHT22;7777;52.254;9.618;2023-06-14T05:17:24;14.80;70.60
15355;DHT22;7777;52.254;9.618;2023-06-14T05:19:49;14.80;70.90
15355;DHT22;7777;52.254;9.618;2023-06-14T05:22:16;14.90;70.60
15355;DHT22;7777;52.254;9.618;2023-06-14T05:24:41;15.00;73.00
15355;DHT22;7777;52.254;9.618;2023-06-14T05:27:07;15.00;73.20
15355;DHT22;7777;52.254;9.618;2023-06-14T05:29:33;15.10;72.30
15355;DHT22;7777;52.254;9.618;2023-06-14T05:32:04;15.20;72.20
15355;DHT22;7777;52.254;9.618;2023-06-14T05:34:33;15.20;71.90
15355;DHT22;7777;52.254;9.618;2023-06-14T05:37:00;15.30;71.10
15355;DHT22;7777;52.254;9.618;2023-06-14T05:39:26;15.40;71.50
15355;DHT22;7777;52.254;9.618;2023-06-14T05:41:51;15.40;73.80
15355;DHT22;7777;52.254;9.618;2023-06-14T05:44:17;15.50;71.60
15355;DHT22;7777;52.254;9.618;2023-06-14T05:46:43;15.60;71.70
15355;DHT22;7777;52.254;9.618;2023-06-14T05:49:09;15.60;72.40
15355;DHT22;7777;52.254;9.618;2023-06-14T05:51:35;15.70;73.00
15355;DHT22;7777;52.254;9.618;2023-06-14T05:54:00;15.70;71.80
15355;DHT22;7777;52.254;9.618;2023-06-14T05:56:40;15.80;74.90
15355;DHT22;7777;52.254;9.618;2023-06-14T05:59:06;15.90;73.00
15355;DHT22;7777;52.254;9.618;2023-06-14T06:01:32;15.90;75.70
15355;DHT22;7777;52.254;9.618;2023-06-14T06:03:59;15.90;74.90
15355;DHT22;7777;52.254;9.618;2023-06-14T06:06:24;16.00;73.60
15355;DHT22;7777;52.254;9.618;2023-06-14T06:08:50;16.10;74.30
15355;DHT22;7777;52.254;9.618;2023-06-14T06:11:16;16.20;74.90
15355;DHT22;7777;52.254;9.618;2023-06-14T06:13:42;16.20;73.80
15355;DHT22;7777;52.254;9.618;2023-06-14T06:16:08;16.30;73.80
15355;DHT22;7777;52.254;9.618;2023-06-14T06:18:34;16.30;75.50
15355;DHT22;7777;52.254;9.618;2023-06-14T06:21:00;16.40;75.20
15355;DHT22;7777;52.254;9.618;2023-06-14T06:23:26;16.50;75.70
15355;DHT22;7777;52.254;9.618;2023-06-14T06:25:52;16.50;75.00
15355;DHT22;7777;52.254;9.618;2023-06-14T06:28:17;16.60;74.40
15355;DHT22;7777;52.254;9.618;2023-06-14T06:30:45;16.70;74.20
15355;DHT22;7777;52.254;9.618;2023-06-14T06:33:14;16.70;75.40
15355;DHT22;7777;52.254;9.618;2023-06-14T06:35:41;16.80;74.80
15355;DHT22;7777;52.254;9.618;2023-06-14T06:38:09;16.90;76.50
15355;DHT22;7777;52.254;9.618;2023-06-14T06:40:42;16.90;76.00
15355;DHT22;7777;52.254;9.618;2023-06-14T06:43:12;17.00;76.00
15355;DHT22;7777;52.254;9.618;2023-06-14T06:45:48;17.10;76.70
15355;DHT22;7777;52.254;9.618;2023-06-14T06:48:16;17.10;75.80
15355;DHT22;7777;52.254;9.618;2023-06-14T06:50:42;17.20;75.90
15355;DHT22;7777;52.254;9.618;2023-06-14T06:53:09;17.30;75.40
15355;DHT22;7777;52.254;9.618;2023-06-14T06:55:36;17.30;76.70
15355;DHT22;7777;52.254;9.618;2023-06-14T06:58:02;17.40;76.40
15355;DHT22;7777;52.254;9.618;2023-06-14T07:00:31;17.50;76.80
15355;DHT22;7777;52.254;9.618;2023-06-14T07:03:01;17.50;76.00
15355;DHT22;7777;52.254;9.618;2023-06-14T07:05:30;17.60;76.30
15355;DHT22;7777;52.254;9.618;2023-06-14T07:07:58;17.70;76.00
15355;DHT22;7777;52.254;9.618;2023-06-14T07:10:25;17.80;76.60
15355;DHT22;7777;52.254;9.618;2023-06-14T07:12:55;17.80;76.40
15355;DHT22;7777;52.254;9.618;2023-06-14T07:15:23;17.90;76.70
15355;DHT22;7777;52.254;9.618;2023-06-14T07:17:50;17.90;76.70
15355;DHT22;7777;52.254;9.618;2023-06-14T07:20:17;18.00;76.50
15355;DHT22;7777;52.254;9.618;2023-06-14T07:22:48;18.10;75.90
15355;DHT22;7777;52.254;9.618;2023-06-14T07:25:15;18.20;76.30
15355;DHT22;7777;52.254;9.618;2023-06-14T07:27:42;18.30;76.50
15355;DHT22;7777;52.254;9.618;2023-06-14T07:30:08;18.30;76.10
15355;DHT22;7777;52.254;9.618;2023-06-14T07:32:35;18.40;75.80
15355;DHT22;7777;52.254;9.618;2023-06-14T07:35:01;18.50;76.20
15355;DHT22;7777;52.254;9.618;2023-06-14T07:37:28;18.60;75.90
15355;DHT22;7777;52.254;9.618;2023-06-14T07:39:54;18.60;76.00
15355;DHT22;7777;52.254;9.618;2023-06-14T07:42:20;18.70;76.30
15355;DHT22;7777;52.254;9.618;2023-06-14T07:44:46;18.70;76.10
15355;DHT22;7777;52.254;9.618;2023-06-14T07:47:11;18.80;76.40
15355;DHT22;7777;52.254;9.618;2023-06-14T07:49:37;18.90;76.30
15355;DHT22;7777;52.254;9.618;2023-06-14T07:52:03;19.00;76.00
15355;DHT22;7777;52.254;9.618;2023-06-14T07:54:30;19.00;75.80
15355;DHT22;7777;52.254;9.618;2023-06-14T07:56:58;19.00;75.10
15355;DHT22;7777;52.254;9.618;2023-06-14T07:59:26;19.10;75.30
15355;DHT22;7777;52.254;9.618;2023-06-14T08:01:52;19.20;75.30
15355;DHT22;7777;52.254;9.618;2023-06-14T08:04:17;19.30;75.60
15355;DHT22;7777;52.254;9.618;2023-06-14T08:06:43;19.30;75.60
15355;DHT22;7777;52.254;9.618;2023-06-14T08:09:13;19.30;74.70
15355;DHT22;7777;52.254;9.618;2023-06-14T08:11:39;19.40;75.30
15355;DHT22;7777;52.254;9.618;2023-06-14T08:14:05;19.50;75.00
15355;DHT22;7777;52.254;9.618;2023-06-14T08:16:30;19.50;75.10
15355;DHT22;7777;52.254;9.618;2023-06-14T08:18:56;19.60;74.80
15355;DHT22;7777;52.254;9.618;2023-06-14T08:21:35;19.60;75.10
15355;DHT22;7777;52.254;9.618;2023-06-14T08:24:03;19.60;74.70
15355;DHT22;7777;52.254;9.618;2023-06-14T08:26:34;19.70;74.60
15355;DHT22;7777;52.254;9.618;2023-06-14T08:29:20;19.80;74.50
15355;DHT22;7777;52.254;9.618;2023-06-14T08:31:48;19.80;74.60
15355;DHT22;7777;52.254;9.618;2023-06-14T08:34:18;19.90;74.50
15355;DHT22;7777;52.254;9.618;2023-06-14T08:36:50;19.90;74.20
15355;DHT22;7777;52.254;9.618;2023-06-14T08:39:18;20.00;73.80
15355;DHT22;7777;52.254;9.618;2023-06-14T08:41:46;20.00;74.20
15355;DHT22;7777;52.254;9.618;2023-06-14T08:44:16;20.00;73.60
15355;DHT22;7777;52.254;9.618;2023-06-14T08:46:43;20.00;74.10
15355;DHT22;7777;52.254;9.618;2023-06-14T08:49:11;20.10;74.40
15355;DHT22;7777;52.254;9.618;2023-06-14T08:51:38;20.10;73.70
15355;DHT22;7777;52.254;9.618;2023-06-14T08:54:06;20.20;74.00
15355;DHT22;7777;52.254;9.618;2023-06-14T08:56:32;20.30;73.80
15355;DHT22;7777;52.254;9.618;2023-06-14T08:59:00;20.40;73.80
15355;DHT22;7777;52.254;9.618;2023-06-14T09:01:33;20.40;73.70
15355;DHT22;7777;52.254;9.618;2023-06-14T09:04:00;20.50;73.60
15355;DHT22;7777;52.254;9.618;2023-06-14T09:06:26;20.60;73.60
15355;DHT22;7777;52.254;9.618;2023-06-14T09:08:54;20.60;73.80
15355;DHT22;7777;52.254;9.618;2023-06-14T09:11:24;20.70;73.80
15355;DHT22;7777;52.254;9.618;2023-06-14T09:13:52;20.70;73.80
15355;DHT22;7777;52.254;9.618;2023-06-14T09:16:17;20.80;74.10
15355;DHT22;7777;52.254;9.618;2023-06-14T09:18:45;20.90;74.30
15355;DHT22;7777;52.254;9.618;2023-06-14T09:21:16;21.00;74.40
15355;DHT22;7777;52.254;9.618;2023-06-14T09:23:47;21.20;74.10
15355;DHT22;7777;52.254;9.618;2023-06-14T09:26:18;21.20;74.10
15355;DHT22;7777;52.254;9.618;2023-06-14T09:28:50;21.30;73.90
15355;DHT22;7777;52.254;9.618;2023-06-14T09:31:17;21.40;74.20
15355;DHT22;7777;52.254;9.618;2023-06-14T09:33:46;21.50;74.10
15355;DHT22;7777;52.254;9.618;2023-06-14T09:36:22;21.60;74.00
15355;DHT22;7777;52.254;9.618;2023-06-14T09:39:00;21.70;74.50
15355;DHT22;7777;52.254;9.618;2023-06-14T09:41:36;21.80;74.90
15355;DHT22;7777;52.254;9.618;2023-06-14T09:44:09;21.90;73.00
15355;DHT22;7777;52.254;9.618;2023-06-14T09:46:37;22.00;74.00
15355;DHT22;7777;52.254;9.618;2023-06-14T09:49:04;22.10;73.70
15355;DHT22;7777;52.254;9.618;2023-06-14T09:51:31;22.10;73.40
15355;DHT22;7777;52.254;9.618;2023-06-14T09:54:01;22.10;72.60
15355;DHT22;7777;52.254;9.618;2023-06-14T09:56:37;22.20;73.00
15355;DHT22;7777;52.254;9.618;2023-06-14T09:59:05;22.30;72.60
15355;DHT22;7777;52.254;9.618;2023-06-14T10:01:35;22.30;72.90
15355;DHT22;7777;52.254;9.618;2023-06-14T10:04:04;22.40;72.60
15355;DHT22;7777;52.254;9.618;2023-06-14T10:06:31;22.50;72.60
15355;DHT22;7777;52.254;9.618;2023-06-14T10:08:59;22.60;72.80
15355;DHT22;7777;52.254;9.618;2023-06-14T10:11:26;22.70;72.80
15355;DHT22;7777;52.254;9.618;2023-06-14T10:13:53;22.70;72.50
15355;DHT22;7777;52.254;9.618;2023-06-14T10:16:39;22.80;71.80
15355;DHT22;7777;52.254;9.618;2023-06-14T10:22:35;22.90;72.10
15355;DHT22;7777;52.254;9.618;2023-06-14T10:25:07;23.10;72.30
15355;DHT22;7777;52.254;9.618;2023-06-14T10:27:38;23.20;72.60
15355;DHT22;7777;52.254;9.618;2023-06-14T10:30:07;23.30;71.40
15355;DHT22;7777;52.254;9.618;2023-06-14T10:32:33;23.30;71.50
15355;DHT22;7777;52.254;9.618;2023-06-14T10:35:09;23.40;72.60
15355;DHT22;7777;52.254;9.618;2023-06-14T10:37:41;23.50;72.00
15355;DHT22;7777;52.254;9.618;2023-06-14T10:40:07;23.60;73.20
15355;DHT22;7777;52.254;9.618;2023-06-14T10:42:34;23.70;71.20
15355;DHT22;7777;52.254;9.618;2023-06-14T10:45:00;23.70;71.70
15355;DHT22;7777;52.254;9.618;2023-06-14T10:47:27;23.80;71.80
15355;DHT22;7777;52.254;9.618;2023-06-14T10:49:56;23.90;72.40
15355;DHT22;7777;52.254;9.618;2023-06-14T10:52:29;24.00;70.00
15355;DHT22;7777;52.254;9.618;2023-06-14T10:55:16;24.00;70.00
15355;DHT22;7777;52.254;9.618;2023-06-14T10:57:54;24.00;71.20
15355;DHT22;7777;52.254;9.618;2023-06-14T11:00:25;24.20;71.60
15355;DHT22;7777;52.254;9.618;2023-06-14T11:11:18;24.20;70.90
15355;DHT22;7777;52.254;9.618;2023-06-14T11:13:47;24.20;69.70
15355;DHT22;7777;52.254;9.618;2023-06-14T11:16:14;24.20;70.70
15355;DHT22;7777;52.254;9.618;2023-06-14T11:18:42;24.20;71.40
15355;DHT22;7777;52.254;9.618;2023-06-14T11:21:08;24.30;71.40
15355;DHT22;7777;52.254;9.618;2023-06-14T11:23:37;24.30;71.90
15355;DHT22;7777;52.254;9.618;2023-06-14T11:26:03;24.40;71.30
15355;DHT22;7777;52.254;9.618;2023-06-14T11:28:39;24.40;71.80
15355;DHT22;7777;52.254;9.618;2023-06-14T11:31:09;24.40;70.40
15355;DHT22;7777;52.254;9.618;2023-06-14T11:33:36;24.40;71.50
15355;DHT22;7777;52.254;9.618;2023-06-14T11:36:07;24.40;72.00
15355;DHT22;7777;52.254;9.618;2023-06-14T11:38:49;24.30;71.10
15355;DHT22;7777;52.254;9.618;2023-06-14T11:41:31;24.30;70.40
15355;DHT22;7777;52.254;9.618;2023-06-14T11:44:21;24.20;71.10
15355;DHT22;7777;52.254;9.618;2023-06-14T11:46:56;24.10;69.60
15355;DHT22;7777;52.254;9.618;2023-06-14T11:49:24;24.10;70.90
15355;DHT22;7777;52.254;9.618;2023-06-14T11:51:53;24.10;71.60
15355;DHT22;7777;52.254;9.618;2023-06-14T11:54:19;24.10;71.20
15355;DHT22;7777;52.254;9.618;2023-06-14T11:56:45;24.20;72.10
15355;DHT22;7777;52.254;9.618;2023-06-14T11:59:13;24.30;72.20
15355;DHT22;7777;52.254;9.618;2023-06-14T12:01:43;24.30;71.30
15355;DHT22;7777;52.254;9.618;2023-06-14T12:04:08;24.30;71.60
15355;DHT22;7777;52.254;9.618;2023-06-14T12:06:34;24.20;71.00
15355;DHT22;7777;52.254;9.618;2023-06-14T12:09:05;24.30;71.00
15355;DHT22;7777;52.254;9.618;2023-06-14T12:11:36;24.20;71.20
15355;DHT22;7777;52.254;9.618;2023-06-14T12:14:05;24.20;70.70
15355;DHT22;7777;52.254;9.618;2023-06-14T12:16:38;24.20;71.20
15355;DHT22;7777;52.254;9.618;2023-06-14T12:19:26;24.30;71.40
15355;DHT22;7777;52.254;9.618;2023-06-14T12:21:51;24.30;71.80
15355;DHT22;7777;52.254;9.618;2023-06-14T12:24:17;24.40;70.90
15355;DHT22;7777;52.254;9.618;2023-06-14T12:26:43;24.50;71.80
15355;DHT22;7777;52.254;9.618;2023-06-14T12:29:09;24.40;71.20
15355;DHT22;7777;52.254;9.618;2023-06-14T12:31:35;24.50;71.70
15355;DHT22;7777;52.254;9.618;2023-06-14T12:34:01;24.50;71.80
15355;DHT22;7777;52.254;9.618;2023-06-14T12:36:27;24.50;71.90
15355;DHT22;7777;52.254;9.618;2023-06-14T12:38:54;24.60;71.90
15355;DHT22;7777;52.254;9.618;2023-06-14T12:41:21;24.60;72.10
15355;DHT22;7777;52.254;9.618;2023-06-14T12:43:48;24.60;71.80
15355;DHT22;7777;52.254;9.618;2023-06-14T12:46:14;24.70;72.30
15355;DHT22;7777;52.254;9.618;2023-06-14T12:48:40;24.70;71.90
15355;DHT22;7777;52.254;9.618;2023-06-14T12:51:05;24.80;71.80
15355;DHT22;7777;52.254;9.618;2023-06-14T12:53:31;24.90;72.50
15355;DHT22;7777;52.254;9.618;2023-06-14T12:55:57;25.00;71.60
15355;DHT22;7777;52.254;9.618;2023-06-14T12:58:23;25.10;72.10
15355;DHT22;7777;52.254;9.618;2023-06-14T13:00:49;25.30;71.80
15355;DHT22;7777;52.254;9.618;2023-06-14T13:03:15;25.30;71.30
15355;DHT22;7777;52.254;9.618;2023-06-14T13:05:41;25.50;72.50
15355;DHT22;7777;52.254;9.618;2023-06-14T13:08:08;25.50;71.70
15355;DHT22;7777;52.254;9.618;2023-06-14T13:10:34;25.60;71.40
15355;DHT22;7777;52.254;9.618;2023-06-14T13:13:00;25.60;71.10
15355;DHT22;7777;52.254;9.618;2023-06-14T13:15:26;25.50;70.60
15355;DHT22;7777;52.254;9.618;2023-06-14T13:17:52;25.50;70.50
15355;DHT22;7777;52.254;9.618;2023-06-14T13:20:18;25.40;70.40
15355;DHT22;7777;52.254;9.618;2023-06-14T13:22:44;25.30;70.20
15355;DHT22;7777;52.254;9.618;2023-06-14T13:25:10;25.30;71.10
15355;DHT22;7777;52.254;9.618;2023-06-14T13:27:36;25.20;70.90
15355;DHT22;7777;52.254;9.618;2023-06-14T13:30:03;25.30;70.40
15355;DHT22;7777;52.254;9.618;2023-06-14T13:32:31;25.30;71.20
15355;DHT22;7777;52.254;9.618;2023-06-14T13:34:57;25.40;71.90
15355;DHT22;7777;52.254;9.618;2023-06-14T13:37:23;25.40;71.20
15355;DHT22;7777;52.254;9.618;2023-06-14T13:39:49;25.50;71.60
15355;DHT22;7777;52.254;9.618;2023-06-14T13:42:15;25.50;70.90
15355;DHT22;7777;52.254;9.618;2023-06-14T13:44:40;25.60;71.60
15355;DHT22;7777;52.254;9.618;2023-06-14T13:47:06;25.70;70.40
15355;DHT22;7777;52.254;9.618;2023-06-14T13:49:32;25.80;71.00
15355;DHT22;7777;52.254;9.618;2023-06-14T13:52:00;25.80;71.10
15355;DHT22;7777;52.254;9.618;2023-06-14T13:54:27;25.90;71.90
15355;DHT22;7777;52.254;9.618;2023-06-14T13:56:53;25.90;69.80
15355;DHT22;7777;52.254;9.618;2023-06-14T13:59:19;25.90;70.10
15355;DHT22;7777;52.254;9.618;2023-06-14T14:01:44;25.90;71.00
15355;DHT22;7777;52.254;9.618;2023-06-14T14:04:10;25.90;70.20
15355;DHT22;7777;52.254;9.618;2023-06-14T14:06:36;25.90;69.50
15355;DHT22;7777;52.254;9.618;2023-06-14T14:09:03;25.90;69.80
15355;DHT22;7777;52.254;9.618;2023-06-14T14:11:28;25.90;69.60
15355;DHT22;7777;52.254;9.618;2023-06-14T14:13:58;26.00;70.90
15355;DHT22;7777;52.254;9.618;2023-06-14T14:16:24;26.10;70.60
15355;DHT22;7777;52.254;9.618;2023-06-14T14:18:51;26.10;70.00
15355;DHT22;7777;52.254;9.618;2023-06-14T14:21:17;26.10;69.80
15355;DHT22;7777;52.254;9.618;2023-06-14T14:23:43;26.00;68.30
15355;DHT22;7777;52.254;9.618;2023-06-14T14:26:11;25.90;68.40
15355;DHT22;7777;52.254;9.618;2023-06-14T14:28:40;25.80;68.10
15355;DHT22;7777;52.254;9.618;2023-06-14T14:31:06;25.70;67.50
15355;DHT22;7777;52.254;9.618;2023-06-14T14:33:32;25.50;68.30
15355;DHT22;7777;52.254;9.618;2023-06-14T14:36:00;25.50;69.40
15355;DHT22;7777;52.254;9.618;2023-06-14T14:38:29;25.50;68.90
15355;DHT22;7777;52.254;9.618;2023-06-14T14:40:55;25.50;69.70
15355;DHT22;7777;52.254;9.618;2023-06-14T14:43:21;25.50;69.30
15355;DHT22;7777;52.254;9.618;2023-06-14T14:45:46;25.40;69.60
15355;DHT22;7777;52.254;9.618;2023-06-14T14:48:12;25.40;69.90
15355;DHT22;7777;52.254;9.618;2023-06-14T14:50:38;25.40;69.90
15355;DHT22;7777;52.254;9.618;2023-06-14T14:53:04;25.40;69.60
15355;DHT22;7777;52.254;9.618;2023-06-14T14:55:31;25.30;68.90
15355;DHT22;7777;52.254;9.618;2023-06-14T14:57:57;25.30;68.30
15355;DHT22;7777;52.254;9.618;2023-06-14T15:00:23;25.20;68.50
15355;DHT22;7777;52.254;9.618;2023-06-14T15:02:49;25.20;69.30
15355;DHT22;7777;52.254;9.618;2023-06-14T15:05:15;25.20;69.70
15355;DHT22;7777;52.254;9.618;2023-06-14T15:07:42;25.20;68.20
15355;DHT22;7777;52.254;9.618;2023-06-14T15:10:12;25.20;69.70
15355;DHT22;7777;52.254;9.618;2023-06-14T15:12:38;25.20;68.70
15355;DHT22;7777;52.254;9.618;2023-06-14T15:15:04;25.20;69.00
15355;DHT22;7777;52.254;9.618;2023-06-14T15:17:30;25.10;67.60
15355;DHT22;7777;52.254;9.618;2023-06-14T15:19:55;25.10;67.50
15355;DHT22;7777;52.254;9.618;2023-06-14T15:22:21;25.10;68.40
15355;DHT22;7777;52.254;9.618;2023-06-14T15:24:47;25.10;68.80
15355;DHT22;7777;52.254;9.618;2023-06-14T15:27:13;25.00;68.80
15355;DHT22;7777;52.254;9.618;2023-06-14T15:29:41;25.10;69.00
15355;DHT22;7777;52.254;9.618;2023-06-14T15:32:08;25.00;69.00
15355;DHT22;7777;52.254;9.618;2023-06-14T15:34:34;25.00;68.60
15355;DHT22;7777;52.254;9.618;2023-06-14T15:37:00;24.90;68.70
15355;DHT22;7777;52.254;9.618;2023-06-14T15:39:29;24.90;69.30
15355;DHT22;7777;52.254;9.618;2023-06-14T15:41:57;24.90;69.50
15355;DHT22;7777;52.254;9.618;2023-06-14T15:44:23;24.90;69.60
15355;DHT22;7777;52.254;9.618;2023-06-14T15:46:49;24.80;69.70
15355;DHT22;7777;52.254;9.618;2023-06-14T15:49:15;24.80;69.30
15355;DHT22;7777;52.254;9.618;2023-06-14T15:51:40;24.70;69.60
15355;DHT22;7777;52.254;9.618;2023-06-14T15:54:06;24.70;70.20
15355;DHT22;7777;52.254;9.618;2023-06-14T15:56:33;24.70;69.60
15355;DHT22;7777;52.254;9.618;2023-06-14T15:58:59;24.60;69.70
15355;DHT22;7777;52.254;9.618;2023-06-14T16:01:26;24.60;70.00
15355;DHT22;7777;52.254;9.618;2023-06-14T16:03:52;24.60;70.20
15355;DHT22;7777;52.254;9.618;2023-06-14T16:06:17;24.60;69.80
15355;DHT22;7777;52.254;9.618;2023-06-14T16:08:46;24.60;70.30
15355;DHT22;7777;52.254;9.618;2023-06-14T16:11:12;24.50;70.00
15355;DHT22;7777;52.254;9.618;2023-06-14T16:13:40;24.50;69.90
15355;DHT22;7777;52.254;9.618;2023-06-14T16:16:07;24.50;70.40
15355;DHT22;7777;52.254;9.618;2023-06-14T16:18:33;24.50;70.40